Time;durP1;ratioP1;P1;durP2;ratioP2;P2;SDS_P1;SDS_P2;PMS_P1;PMS_P2;Temp;Humidity;BMP_temperature;BMP_pressure;BME280_temperature;BME280_humidity;BME280_pressure;Samples;Min_cycle;Max_cycle;Signal;HPM_P1;HPM_P2
2022/07/03 06:42:51;;;;;;;;;1.33;1.33;;;;;21.46;91.20;100526.75;4767345;29;45660;-95
2022/07/03 06:45:59;;;;;;;;;1.00;1.00;;;;;21.47;91.14;100516.94;4761549;29;45629;-94
2022/07/03 06:49:20;;;;;;;;;;;;;;;;;;;;;
2022/07/03 07:20:55;;;;;;;;;1.00;1.00;;;;;22.33;89.37;100583.34;6250210;22;1309043;-83
2022/07/03 07:23:20;;;;;;;;;0.33;0.33;;;;;22.35;88.88;100594.03;6277712;22;45445;-84
2022/07/03 07:25:46;;;;;;;;;1.00;1.00;;;;;22.35;88.87;100594.03;6276928;22;46336;-83
2022/07/03 07:28:11;;;;;;;;;2.67;2.00;;;;;22.41;89.22;100589.53;6278836;22;45646;-84
2022/07/03 07:30:38;;;;;;;;;1.00;1.00;;;;;22.50;88.84;100595.69;6278039;22;45347;-84
2022/07/03 07:33:03;;;;;;;;;2.00;2.00;;;;;22.55;88.47;100601.91;6278011;22;46553;-84
2022/07/03 07:35:29;;;;;;;;;1.67;1.67;;;;;22.61;88.69;100600.97;6277595;22;45221;-84
2022/07/03 07:37:54;;;;;;;;;0.33;0.33;;;;;22.68;88.76;100586.66;6249977;22;53740;-83
2022/07/03 07:40:19;;;;;;;;;1.33;0.67;;;;;22.79;88.73;100607.13;6249607;22;45651;-84
2022/07/03 07:42:45;;;;;;;;;1.67;1.67;;;;;22.84;88.57;100602.63;6253060;22;46846;-85
2022/07/03 07:45:11;;;;;;;;;3.00;3.00;;;;;22.91;88.28;100603.47;6253082;22;45564;-86
2022/07/03 07:47:36;;;;;;;;;1.67;1.00;;;;;22.98;88.59;100599.84;6285046;22;45263;-85
2022/07/03 07:50:02;;;;;;;;;0.33;0.00;;;;;23.03;87.89;100611.41;6286582;22;45257;-84
2022/07/03 07:52:27;;;;;;;;;4.33;1.00;;;;;23.09;87.64;100613.13;6250212;22;48375;-85
2022/07/03 07:54:52;;;;;;;;;2.00;0.67;;;;;23.16;87.54;100621.97;6277404;22;56860;-83
2022/07/03 07:57:17;;;;;;;;;1.00;1.00;;;;;23.20;87.28;100616.56;6277991;22;47154;-83
2022/07/03 07:59:43;;;;;;;;;2.33;1.67;;;;;23.28;87.51;100621.84;6250086;22;46799;-86
2022/07/03 08:07:36;;;;;;;;;1.00;0.67;;;;;23.57;87.35;100619.81;6273202;22;45306;-85
2022/07/03 08:10:02;;;;;;;;;1.67;1.00;;;;;23.63;87.48;100619.72;6276816;22;45378;-85
2022/07/03 08:12:27;;;;;;;;;1.00;1.00;;;;;23.75;86.74;100641.94;6246996;22;48038;-84
2022/07/03 08:14:52;;;;;;;;;3.00;2.00;;;;;23.87;86.02;100644.47;6241496;22;60902;-84
2022/07/03 08:17:18;;;;;;;;;0.00;0.00;;;;;23.95;85.75;100656.88;6270348;22;45324;-84
2022/07/03 08:19:43;;;;;;;;;6.00;5.67;;;;;23.98;85.66;100656.84;6270003;22;45322;-84
2022/07/03 08:22:08;;;;;;;;;1.33;1.00;;;;;23.97;85.58;100655.06;6242794;22;47945;-83
2022/07/03 08:24:34;;;;;;;;;1.00;0.67;;;;;24.02;85.66;100650.53;6269239;22;45358;-83
2022/07/03 08:26:59;;;;;;;;;0.00;0.00;;;;;24.11;85.19;100660.28;6271119;22;45317;-84
2022/07/03 08:29:25;;;;;;;;;1.00;1.00;;;;;24.16;85.19;100662.88;6271394;22;47048;-83
2022/07/03 08:31:50;;;;;;;;;2.00;2.00;;;;;24.26;84.76;100672.63;6276001;22;45417;-82
2022/07/03 08:34:16;;;;;;;;;0.00;0.00;;;;;24.38;85.33;100663.50;6249768;22;45865;-84
2022/07/03 08:36:41;;;;;;;;;2.00;1.00;;;;;24.32;85.04;100672.56;6242608;22;45353;-84
2022/07/03 08:39:07;;;;;;;;;1.00;1.00;;;;;24.36;84.77;100678.75;6241710;22;45377;-84
2022/07/03 08:41:36;;;;;;;;;0.00;0.00;;;;;24.43;85.28;100660.78;6241709;22;46866;-84
2022/07/03 08:44:02;;;;;;;;;1.00;0.67;;;;;24.54;85.19;100657.94;6241635;22;45475;-86
2022/07/03 08:46:31;;;;;;;;;0.00;0.00;;;;;24.65;84.78;100663.16;6269538;22;45471;-87
2022/07/03 08:48:58;;;;;;;;;0.00;0.00;;;;;24.75;84.75;100671.94;6242503;22;45550;-85
2022/07/03 08:51:24;;;;;;;;;2.00;2.00;;;;;24.84;84.64;100668.25;6241369;22;46435;-85
2022/07/03 08:53:54;;;;;;;;;1.33;0.67;;;;;24.90;84.24;100676.19;6240725;22;45312;-85
2022/07/03 08:56:20;;;;;;;;;2.00;1.33;;;;;24.97;83.83;100679.66;6239785;22;45569;-87
2022/07/03 08:58:46;;;;;;;;;2.00;2.00;;;;;25.03;83.74;100690.31;6242614;22;45352;-86
2022/07/03 09:01:16;;;;;;;;;0.67;0.67;;;;;25.19;83.58;100696.34;6268742;22;53354;-85
2022/07/03 09:03:42;;;;;;;;;2.00;1.00;;;;;25.24;83.05;100700.72;6269050;22;45212;-85
2022/07/03 09:06:08;;;;;;;;;1.00;1.00;;;;;25.37;83.13;100699.63;6243235;22;45418;-86
2022/07/03 09:08:34;;;;;;;;;3.00;3.00;;;;;25.46;82.95;100717.38;6277513;22;45301;-86
2022/07/03 09:10:59;;;;;;;;;2.00;0.67;;;;;25.48;82.36;100709.28;6245145;22;47192;-86
2022/07/03 09:13:24;;;;;;;;;0.67;0.67;;;;;25.56;81.91;100726.16;6279142;22;45222;-86
2022/07/03 09:15:50;;;;;;;;;1.00;1.00;;;;;25.69;82.81;100712.50;6275925;22;45516;-86
2022/07/03 09:18:15;;;;;;;;;2.00;2.00;;;;;26.10;83.17;100701.88;6268584;22;57906;-87
2022/07/03 09:20:41;;;;;;;;;2.00;2.00;;;;;26.47;82.83;100708.28;6266616;22;47709;-86
2022/07/03 09:23:16;;;;;;;;;2.00;2.00;;;;;26.70;81.76;100732.94;6241943;22;45372;-86
2022/07/03 09:25:57;;;;;;;;;1.00;1.00;;;;;26.83;81.12;100739.78;6267984;22;45569;-86
2022/07/03 09:28:40;;;;;;;;;3.00;2.00;;;;;27.16;81.04;100749.81;6270022;22;45540;-88
2022/07/03 09:31:06;;;;;;;;;4.00;3.00;;;;;27.19;80.58;100756.94;6269941;22;45667;-87
2022/07/03 09:33:31;;;;;;;;;4.67;3.00;;;;;27.11;80.26;100776.81;6241693;22;45353;-87
2022/07/03 09:35:57;;;;;;;;;2.67;1.33;;;;;27.36;80.67;100761.03;6241338;22;45305;-87
2022/07/03 09:38:23;;;;;;;;;1.00;1.00;;;;;27.67;79.97;100771.03;6269962;22;45397;-86
2022/07/03 09:40:50;;;;;;;;;5.00;5.00;;;;;27.85;79.32;100795.75;6269590;22;45442;-86
2022/07/03 09:43:22;;;;;;;;;3.00;2.00;;;;;27.84;78.89;100998.91;6269963;22;45350;-86
2022/07/03 09:46:00;;;;;;;;;0.67;0.67;;;;;28.00;78.37;101231.44;6242290;22;45306;-86
2022/07/03 09:48:26;;;;;;;;;3.00;3.00;;;;;28.25;78.21;101305.59;6274464;22;45333;-86
2022/07/03 09:51:25;;;;;;;;;3.00;2.00;;;;;28.32;77.34;101361.25;6278982;22;45270;-87
2022/07/03 09:53:50;;;;;;;;;4.00;4.00;;;;;28.35;77.27;101382.75;6276767;22;45195;-87
2022/07/03 09:56:20;;;;;;;;;3.00;3.00;;;;;28.49;76.87;101414.03;6278664;22;45442;-85
2022/07/03 09:59:10;;;;;;;;;2.00;2.00;;;;;29.10;77.49;101400.16;6240883;22;45424;-87
2022/07/03 10:01:43;;;;;;;;;3.00;3.00;;;;;30.42;77.56;101412.28;6240843;22;46969;-86
2022/07/03 10:04:26;;;;;;;;;1.67;1.67;;;;;31.31;75.62;101476.59;6240945;22;45402;-86
2022/07/03 10:06:55;;;;;;;;;10.67;9.67;;;;;32.87;74.52;101519.41;6240965;22;51919;-85
2022/07/03 10:09:25;;;;;;;;;5.67;4.33;;;;;34.64;73.94;101551.44;6240845;22;45331;-85
2022/07/03 10:11:52;;;;;;;;;4.00;4.00;;;;;35.99;71.93;101597.13;6269348;22;45574;-84
2022/07/03 10:14:19;;;;;;;;;4.00;3.00;;;;;37.04;68.31;101631.97;6242220;22;45377;-86
2022/07/03 10:16:46;;;;;;;;;5.67;3.67;;;;;36.96;66.71;101651.53;6269526;22;45504;-86
2022/07/03 10:19:21;;;;;;;;;3.67;3.00;;;;;37.76;63.19;101667.28;6241834;22;45247;-85
2022/07/03 10:21:54;;;;;;;;;4.33;2.67;;;;;38.75;63.62;101678.13;6268868;22;45503;-87
2022/07/03 10:24:25;;;;;;;;;4.33;4.00;;;;;39.78;62.40;101676.41;6240464;22;45906;-85
2022/07/03 10:26:52;;;;;;;;;5.00;5.00;;;;;40.85;58.67;101691.34;6241126;22;45352;-86
2022/07/03 10:29:20;;;;;;;;;2.00;2.00;;;;;41.85;58.99;101686.16;6242610;22;45386;-86
2022/07/03 10:31:46;;;;;;;;;2.00;2.00;;;;;42.88;56.92;101702.38;6245567;22;48451;-86
2022/07/03 10:34:16;;;;;;;;;2.67;1.67;;;;;41.94;54.98;101705.72;6248973;22;45601;-86
2022/07/03 10:36:43;;;;;;;;;2.00;2.00;;;;;40.30;53.85;101708.78;6279486;22;45341;-86
2022/07/03 10:39:18;;;;;;;;;1.67;1.67;;;;;38.56;54.09;101706.63;6241680;22;45454;-85
2022/07/03 10:44:46;;;;;;;;;3.67;3.67;;;;;40.98;55.88;101699.59;6269816;22;45345;-86
2022/07/03 10:47:50;;;;;;;;;2.00;2.00;;;;;41.96;53.96;101709.25;6240926;22;45373;-88
2022/07/03 10:50:17;;;;;;;;;3.00;2.00;;;;;41.55;51.97;101707.56;6268106;22;45334;-87
2022/07/03 10:52:43;;;;;;;;;2.00;2.00;;;;;40.25;51.66;101705.47;6242110;22;47408;-87
2022/07/03 10:55:09;;;;;;;;;1.33;1.33;;;;;39.05;51.95;101709.25;6269835;22;45401;-87
2022/07/03 10:57:36;;;;;;;;;1.00;1.00;;;;;38.91;52.61;101706.50;6270325;22;45431;-88
2022/07/03 11:00:08;;;;;;;;;0.00;0.00;;;;;40.32;54.09;101695.81;6270815;22;45262;-88
2022/07/03 11:02:51;;;;;;;;;2.00;2.00;;;;;41.10;52.98;101705.25;6269930;22;45723;-88
2022/07/03 11:05:25;;;;;;;;;2.33;2.33;;;;;42.17;51.85;101705.91;6269474;22;45446;-86
2022/07/03 11:07:50;;;;;;;;;2.00;1.67;;;;;43.27;51.16;101709.44;6242032;22;45423;-87
2022/07/03 11:10:16;;;;;;;;;4.67;4.33;;;;;44.64;50.56;101710.28;6245514;22;45552;-88
2022/07/03 11:13:04;;;;;;;;;2.00;2.00;;;;;44.27;48.08;101717.09;6247931;22;47041;-88
2022/07/03 11:15:49;;;;;;;;;3.00;2.00;;;;;42.60;47.78;101723.81;6279071;22;45643;-88
2022/07/03 11:18:27;;;;;;;;;0.67;0.67;;;;;41.53;48.23;101720.56;6275824;22;45377;-86
2022/07/03 11:20:52;;;;;;;;;0.33;0.33;;;;;42.31;49.14;101721.41;6268687;22;45380;-87
2022/07/03 11:23:33;;;;;;;;;1.00;1.00;;;;;41.76;48.04;101719.91;6269877;22;45554;-87
2022/07/03 11:26:18;;;;;;;;;3.00;3.00;;;;;43.69;49.97;101721.78;6240497;22;45425;-86
2022/07/03 11:28:43;;;;;;;;;1.00;1.00;;;;;45.86;48.33;101715.34;6242222;22;45319;-87
2022/07/03 11:31:13;;;;;;;;;4.33;4.33;;;;;47.84;45.72;101715.22;6270236;22;45330;-87
2022/07/03 11:33:41;;;;;;;;;3.00;2.00;;;;;48.49;44.47;101715.19;6270022;22;45331;-86
2022/07/03 11:36:09;;;;;;;;;2.33;2.00;;;;;48.51;43.62;101710.31;6240463;22;45562;-87
2022/07/03 11:38:35;;;;;;;;;5.00;5.00;;;;;48.37;42.36;101714.56;6269894;22;45357;-86
2022/07/03 11:41:02;;;;;;;;;2.00;2.00;;;;;47.65;42.48;101711.50;6269988;22;45292;-86
2022/07/03 11:43:27;;;;;;;;;3.67;3.00;;;;;46.89;41.13;101709.53;6269881;22;45341;-87
2022/07/03 11:45:53;;;;;;;;;1.00;1.00;;;;;45.58;41.33;101706.75;6270102;22;45598;-87
2022/07/03 11:48:21;;;;;;;;;0.00;0.00;;;;;44.43;42.41;101704.69;6270903;22;45430;-87
2022/07/03 11:50:49;;;;;;;;;2.00;2.00;;;;;43.78;42.53;101698.06;6249485;22;45330;-88
2022/07/03 11:53:26;;;;;;;;;2.00;0.67;;;;;42.19;42.85;101706.69;6251955;22;48251;-89
2022/07/03 11:56:15;;;;;;;;;0.67;0.67;;;;;40.37;43.72;101712.00;6280700;22;45193;-89
2022/07/03 11:58:49;;;;;;;;;1.33;1.33;;;;;38.96;44.38;101701.59;6262305;22;45234;-87
2022/07/03 12:01:26;;;;;;;;;0.00;0.00;;;;;38.99;46.48;101696.78;6243633;22;45385;-87
2022/07/03 12:04:10;;;;;;;;;1.00;1.00;;;;;41.56;46.75;101689.16;6242700;22;46336;-87
2022/07/03 12:06:40;;;;;;;;;2.00;2.00;;;;;44.48;45.67;101688.56;6242748;22;45475;-87
2022/07/03 12:09:30;;;;;;;;;1.00;1.00;;;;;47.10;44.33;101691.81;6242185;22;45304;-88
2022/07/03 12:12:01;;;;;;;;;3.00;2.00;;;;;49.55;42.96;101692.03;6229571;22;45434;-88
2022/07/03 12:14:45;;;;;;;;;3.00;3.00;;;;;50.29;39.58;101693.25;6272702;22;45219;-87
2022/07/03 12:17:19;;;;;;;;;24.67;24.33;;;;;48.37;38.60;101695.09;6242248;22;45553;-88
2022/07/03 12:19:50;;;;;;;;;1.33;1.00;;;;;46.03;38.33;101687.91;6270460;22;45485;-88
2022/07/03 12:22:28;;;;;;;;;4.00;4.00;;;;;44.61;40.03;101693.94;6272510;22;45400;-88
2022/07/03 12:25:01;;;;;;;;;1.00;1.00;;;;;45.17;40.99;101690.09;6242617;22;47165;-88
2022/07/03 12:27:32;;;;;;;;;0.00;0.00;;;;;44.26;40.03;101679.34;6264683;22;45377;-87
2022/07/03 12:29:58;;;;;;;;;7.33;7.00;;;;;45.30;40.92;101687.09;6244842;22;45587;-88
2022/07/03 12:32:24;;;;;;;;;0.67;0.67;;;;;46.96;41.44;101679.25;6250094;22;45312;-88
2022/07/03 12:34:49;;;;;;;;;1.00;1.00;;;;;47.25;40.06;101677.44;6276931;22;45805;-88
2022/07/03 12:37:15;;;;;;;;;2.00;1.00;;;;;47.49;39.69;101667.69;6280752;22;45850;-87
2022/07/03 12:39:45;;;;;;;;;1.00;0.00;;;;;48.24;39.32;101676.00;6275997;22;45524;-87
2022/07/03 12:42:18;;;;;;;;;0.00;0.00;;;;;48.84;39.10;101668.81;6251637;22;45412;-88
2022/07/03 12:45:06;;;;;;;;;0.00;0.00;;;;;49.09;38.42;101668.13;6271715;22;46227;-88
2022/07/03 12:47:31;;;;;;;;;0.00;0.00;;;;;50.80;38.36;101665.34;6270860;22;45372;-88
2022/07/03 12:50:02;;;;;;;;;0.00;0.00;;;;;52.45;38.17;101676.88;6243218;22;45243;-88
2022/07/03 12:52:33;;;;;;;;;0.00;0.00;;;;;54.37;36.65;101665.06;6272731;22;45727;-88
2022/07/03 12:55:00;;;;;;;;;1.33;0.33;;;;;54.90;34.90;101680.56;6243283;22;47047;-87
2022/07/03 13:00:19;;;;;;;;;0.00;0.00;;;;;55.93;33.51;101668.66;6272091;22;45337;-88
2022/07/03 13:02:46;;;;;;;;;0.00;0.00;;;;;57.21;33.08;101671.50;6238922;22;45410;-88
2022/07/03 13:05:15;;;;;;;;;0.00;0.00;;;;;58.28;32.29;101680.63;6270171;22;45351;-88
2022/07/03 13:07:41;;;;;;;;;0.00;0.00;;;;;58.76;31.80;101667.75;6243603;22;45487;-88
2022/07/03 13:10:08;;;;;;;;;0.00;0.00;;;;;57.31;31.01;101673.00;6244637;22;45244;-88
2022/07/03 13:12:33;;;;;;;;;1.00;1.00;;;;;57.40;30.89;101670.78;6277192;22;45289;-87
2022/07/03 13:15:02;;;;;;;;;0.00;0.00;;;;;58.24;30.35;101671.75;6249885;22;46175;-88
2022/07/03 13:17:50;;;;;;;;;0.00;0.00;;;;;59.28;30.09;101665.59;6249072;22;45319;-88
2022/07/03 13:20:15;;;;;;;;;0.00;0.00;;;;;60.30;29.12;101674.44;6242305;22;45336;-88
2022/07/03 13:22:40;;;;;;;;;0.00;0.00;;;;;60.99;28.61;101667.25;6271492;22;45353;-89
2022/07/03 13:25:06;;;;;;;;;0.00;0.00;;;;;61.52;27.85;101673.94;6242595;22;56052;-89
2022/07/03 13:27:31;;;;;;;;;0.00;0.00;;;;;61.30;27.38;101655.66;6243911;22;45406;-88
2022/07/03 13:29:56;;;;;;;;;1.00;0.00;;;;;61.58;26.75;101667.25;6271892;22;47054;-88
2022/07/03 13:32:22;;;;;;;;;0.00;0.00;;;;;61.29;26.66;101667.28;6270403;22;45298;-89
2022/07/03 13:34:47;;;;;;;;;0.00;0.00;;;;;59.01;26.18;101663.09;6271468;22;45270;-89
2022/07/03 13:37:12;;;;;;;;;0.00;0.00;;;;;56.06;27.06;101650.91;6271441;22;45314;-88
2022/07/03 13:39:38;;;;;;;;;0.00;0.00;;;;;54.81;27.84;101642.47;6243020;22;56524;-88
2022/07/03 13:42:05;;;;;;;;;0.00;0.00;;;;;55.51;27.59;101643.44;6271670;22;45303;-88
2022/07/03 13:44:30;;;;;;;;;0.00;0.00;;;;;56.02;28.09;101655.25;6272238;22;45464;-88
2022/07/03 13:46:55;;;;;;;;;0.00;0.00;;;;;57.20;28.19;101646.34;6271801;22;45381;-88
2022/07/03 13:49:21;;;;;;;;;0.67;0.00;;;;;56.46;27.44;101643.53;6273356;22;45856;-89
2022/07/03 13:51:46;;;;;;;;;0.00;0.00;;;;;57.21;27.56;101645.25;6278784;22;45353;-89
2022/07/03 13:54:12;;;;;;;;;0.00;0.00;;;;;58.28;27.56;101641.91;6246818;22;47219;-88
2022/07/03 13:56:37;;;;;;;;;0.00;0.00;;;;;59.14;26.87;101639.47;6280697;22;45357;-91
2022/07/03 13:59:02;;;;;;;;;0.00;0.00;;;;;59.70;26.58;101649.72;6247682;22;45640;-91
2022/07/03 14:01:28;;;;;;;;;0.00;0.00;;;;;60.29;25.83;101642.41;6271826;22;45381;-91
2022/07/03 14:03:54;;;;;;;;;0.00;0.00;;;;;58.92;25.55;101640.78;6246337;22;46943;-89
2022/07/03 14:06:19;;;;;;;;;0.00;0.00;;;;;57.47;26.27;101634.94;6272517;22;45412;-90
2022/07/03 14:08:44;;;;;;;;;0.00;0.00;;;;;57.86;26.54;101637.75;6244033;22;45511;-89
2022/07/03 14:11:10;;;;;;;;;0.00;0.00;;;;;58.69;26.30;101641.50;6243271;22;45230;-89
2022/07/03 14:13:35;;;;;;;;;1.00;0.00;;;;;59.50;26.14;101636.78;6272081;22;45290;-89
2022/07/03 14:16:01;;;;;;;;;0.00;0.00;;;;;60.04;26.08;101637.84;6272384;22;45374;-89
2022/07/03 14:18:26;;;;;;;;;0.00;0.00;;;;;60.58;25.62;101628.38;6244754;22;45359;-89
2022/07/03 14:20:51;;;;;;;;;0.00;0.00;;;;;61.07;24.67;101645.25;6271465;22;45350;-95
2022/07/03 14:23:16;;;;;;;;;0.00;0.00;;;;;61.29;25.03;101647.41;6245583;22;50156;-96
2022/07/03 14:25:42;;;;;;;;;0.00;0.00;;;;;61.34;24.94;101648.34;6245737;22;45271;-92
2022/07/03 14:33:35;;;;;;;;;0.00;0.00;;;;;61.50;24.27;101634.44;6283481;22;45267;-96
2022/07/03 14:36:00;;;;;;;;;0.00;0.00;;;;;61.85;24.33;101640.16;6282742;22;45163;-96
2022/07/03 14:38:25;;;;;;;;;0.00;0.00;;;;;62.07;23.88;101636.50;6253427;22;45315;-95
2022/07/03 14:40:51;;;;;;;;;0.33;0.00;;;;;62.25;23.96;101643.91;6274535;22;45259;-93
2022/07/03 14:43:17;;;;;;;;;0.00;0.00;;;;;62.20;23.73;101638.16;6246793;22;47181;-95
2022/07/03 14:45:42;;;;;;;;;0.00;0.00;;;;;61.28;23.60;101638.03;6272537;22;45249;-94
2022/07/03 14:48:08;;;;;;;;;0.00;0.00;;;;;58.92;23.61;101632.31;6245816;22;58240;-94
2022/07/03 14:50:34;;;;;;;;;0.00;0.00;;;;;56.02;24.83;101627.09;6274622;22;45246;-94
2022/07/03 14:52:59;;;;;;;;;0.00;0.00;;;;;53.12;25.89;101625.75;6248064;22;48645;-94
2022/07/03 14:55:31;;;;;;;;;0.00;0.00;;;;;50.53;26.16;101615.28;6275139;22;45199;-95
2022/07/03 14:58:11;;;;;;;;;0.00;0.00;;;;;48.15;27.67;101627.75;6276183;22;45305;-95
2022/07/03 15:00:41;;;;;;;;;0.00;0.00;;;;;46.02;29.26;101622.38;6274782;22;45364;-95
2022/07/03 15:03:15;;;;;;;;;0.00;0.00;;;;;44.22;29.84;101619.78;6246303;22;46135;-95
2022/07/03 15:05:42;;;;;;;;;0.00;0.00;;;;;42.74;30.53;101620.63;6246082;22;45243;-94
2022/07/03 15:08:29;;;;;;;;;0.00;0.00;;;;;41.21;31.92;101627.44;6247974;22;45316;-95
2022/07/03 15:11:05;;;;;;;;;0.00;0.00;;;;;39.98;32.67;101623.84;6277621;22;45385;-95
2022/07/03 15:13:32;;;;;;;;;0.00;0.00;;;;;38.93;33.71;101627.72;6254626;22;47070;-95
2022/07/03 15:15:57;;;;;;;;;0.00;0.00;;;;;38.07;34.30;101629.06;6281691;22;45251;-93
2022/07/03 15:18:24;;;;;;;;;0.00;0.00;;;;;37.25;34.76;101627.19;6256837;22;45369;-95
2022/07/03 15:20:50;;;;;;;;;0.00;0.00;;;;;36.60;35.33;101624.16;6280696;22;45877;-94
2022/07/03 15:23:18;;;;;;;;;5.67;5.67;;;;;36.03;36.69;101625.19;6279351;22;46733;-95
2022/07/03 15:25:45;;;;;;;;;4.00;4.00;;;;;35.45;36.72;101617.88;6276709;22;45242;-94
2022/07/03 15:28:11;;;;;;;;;0.00;0.00;;;;;34.97;37.95;101620.94;6249386;22;45215;-92
2022/07/03 15:30:38;;;;;;;;;0.00;0.00;;;;;34.42;38.83;101615.97;6252996;22;45393;-94
2022/07/03 15:33:03;;;;;;;;;0.00;0.00;;;;;33.99;39.46;101621.34;6250316;22;46192;-94
2022/07/03 15:35:32;;;;;;;;;0.00;0.00;;;;;33.58;39.42;101611.13;6248442;22;46025;-93
2022/07/03 15:38:09;;;;;;;;;0.00;0.00;;;;;33.23;40.34;101621.44;6275392;22;45540;-96
2022/07/03 15:40:46;;;;;;;;;0.00;0.00;;;;;32.87;40.27;101605.50;6248204;22;45303;-96
2022/07/03 15:43:17;;;;;;;;;0.00;0.00;;;;;32.57;40.71;101620.09;6247551;22;47362;-95
2022/07/03 15:46:14;;;;;;;;;0.00;0.00;;;;;32.28;41.36;101612.00;6248494;22;45180;-91
2022/07/03 15:48:57;;;;;;;;;0.00;0.00;;;;;32.04;42.37;101619.97;6272620;22;45379;-87
2022/07/03 15:51:35;;;;;;;;;0.00;0.00;;;;;31.79;42.60;101607.16;6273418;22;45226;-89
2022/07/03 15:54:02;;;;;;;;;0.00;0.00;;;;;31.65;42.68;101604.88;6252480;22;47223;-89
2022/07/03 15:56:31;;;;;;;;;0.00;0.00;;;;;31.57;43.41;101615.94;6278130;22;45282;-88
2022/07/03 15:59:01;;;;;;;;;0.00;0.00;;;;;31.41;43.65;101605.56;6278897;22;45220;-88
2022/07/03 16:04:41;;;;;;;;;0.00;0.00;;;;;31.00;44.63;101605.81;6270208;22;45581;-87
2022/07/03 16:07:09;;;;;;;;;0.00;0.00;;;;;30.81;45.28;101606.28;6243037;22;45373;-88
2022/07/03 16:09:34;;;;;;;;;45.75;36.50;;;;;30.60;45.12;101614.03;6270036;22;45347;-89
2022/07/03 16:12:00;;;;;;;;;2.00;2.00;;;;;30.41;45.18;101608.22;6243076;22;45236;-88
2022/07/03 16:14:33;;;;;;;;;0.00;0.00;;;;;30.27;45.92;101616.63;6270579;22;58549;-87
2022/07/03 16:17:03;;;;;;;;;0.00;0.00;;;;;30.07;46.10;101604.47;6270388;22;45854;-87
2022/07/03 16:19:30;;;;;;;;;0.00;0.00;;;;;29.92;46.05;101608.44;6243428;22;45354;-88
2022/07/03 16:21:59;;;;;;;;;0.00;0.00;;;;;29.81;46.40;101609.56;6271369;22;45363;-89
2022/07/03 16:24:25;;;;;;;;;0.00;0.00;;;;;29.75;46.62;101607.88;6270215;22;48360;-90
2022/07/03 16:26:51;;;;;;;;;0.00;0.00;;;;;29.69;47.69;101609.81;6271070;22;45290;-88
2022/07/03 16:29:17;;;;;;;;;0.00;0.00;;;;;29.63;46.93;101610.81;6243639;22;45467;-88
2022/07/03 16:31:48;;;;;;;;;0.00;0.00;;;;;29.52;47.30;101602.94;6246625;22;45267;-88
2022/07/03 16:34:28;;;;;;;;;0.00;0.00;;;;;29.39;47.86;101607.69;6249741;22;47249;-90
2022/07/03 16:36:56;;;;;;;;;0.00;0.00;;;;;29.22;48.29;101615.22;6279505;22;45246;-88
2022/07/03 16:39:36;;;;;;;;;0.00;0.00;;;;;29.05;48.13;101609.22;6250436;22;45409;-89
2022/07/03 16:42:04;;;;;;;;;0.00;0.00;;;;;28.89;48.32;101610.41;6269564;22;45358;-88
2022/07/03 16:44:32;;;;;;;;;0.00;0.00;;;;;28.78;48.49;101607.03;6241572;22;47008;-88
2022/07/03 16:47:03;;;;;;;;;0.00;0.00;;;;;28.64;49.29;101607.25;6242029;22;45819;-88
2022/07/03 16:49:33;;;;;;;;;0.00;0.00;;;;;28.51;49.17;101612.88;6273184;22;45293;-92
2022/07/03 16:52:10;;;;;;;;;0.00;0.00;;;;;28.40;49.25;101601.34;6277471;22;45532;-90
2022/07/03 16:54:37;;;;;;;;;0.00;0.00;;;;;28.27;49.76;101606.03;6273705;22;46188;-91
2022/07/03 16:57:07;;;;;;;;;0.00;0.00;;;;;28.14;50.28;101603.53;6255713;22;45210;-96
2022/07/03 16:59:33;;;;;;;;;0.00;0.00;;;;;28.01;50.82;101602.81;6258929;22;45390;-95
2022/07/03 17:02:01;;;;;;;;;0.00;0.00;;;;;27.89;50.30;101593.97;6285273;22;45277;-95
2022/07/03 17:04:28;;;;;;;;;0.00;0.00;;;;;27.81;50.65;101603.13;6276140;22;46403;-91
2022/07/03 17:06:54;;;;;;;;;0.00;0.00;;;;;27.66;50.75;101591.56;6274562;22;45171;-91
2022/07/03 17:09:21;;;;;;;;;0.00;0.00;;;;;27.58;50.67;101598.84;6273184;22;45413;-92
2022/07/03 17:11:48;;;;;;;;;0.67;0.67;;;;;27.47;51.40;101601.72;6277172;22;45341;-93
2022/07/03 17:14:14;;;;;;;;;0.00;0.00;;;;;27.39;51.38;101596.41;6283063;22;45465;-94
2022/07/03 17:16:49;;;;;;;;;0.00;0.00;;;;;27.31;51.32;101599.19;6281773;22;45326;-91
2022/07/03 17:19:22;;;;;;;;;0.00;0.00;;;;;27.25;51.59;101602.84;6251427;22;45495;-89
2022/07/03 17:21:49;;;;;;;;;0.00;0.00;;;;;27.17;52.16;101602.94;6244064;22;45365;-91
2022/07/03 17:24:18;;;;;;;;;12.00;11.33;;;;;27.10;52.32;101603.88;6242960;22;48224;-90
2022/07/03 17:26:47;;;;;;;;;7.00;6.33;;;;;27.03;52.55;101599.47;6243892;22;45212;-91
2022/07/03 17:29:43;;;;;;;;;9.33;9.33;;;;;27.00;52.37;101601.28;6271587;22;45360;-88
2022/07/03 17:32:13;;;;;;;;;12.00;10.00;;;;;26.93;52.62;101599.53;6271365;22;45698;-90
2022/07/03 17:34:39;;;;;;;;;9.00;9.00;;;;;26.87;52.86;101600.53;6271484;22;45579;-91
2022/07/03 17:37:06;;;;;;;;;2.00;1.00;;;;;26.81;53.29;101603.25;6243457;22;45382;-91
2022/07/03 17:39:33;;;;;;;;;3.33;3.33;;;;;26.78;53.00;101604.19;6271132;22;45333;-90
2022/07/03 17:41:59;;;;;;;;;0.67;0.67;;;;;26.71;53.16;101605.16;6239692;22;45314;-91
2022/07/03 17:44:27;;;;;;;;;0.33;0.33;;;;;26.69;53.05;101603.38;6245491;22;47417;-91
2022/07/03 17:46:53;;;;;;;;;0.00;0.00;;;;;26.61;53.29;101606.13;6249875;22;46037;-91
2022/07/03 17:49:20;;;;;;;;;2.00;2.00;;;;;26.58;53.50;101611.53;6272348;22;45343;-92
2022/07/03 17:51:49;;;;;;;;;1.00;1.00;;;;;26.50;53.57;101607.13;6272962;22;45462;-91
2022/07/03 17:54:15;;;;;;;;;0.00;0.00;;;;;26.44;53.65;101608.06;6277146;22;45286;-89
2022/07/03 17:56:42;;;;;;;;;0.00;0.00;;;;;26.38;54.22;101609.88;6278110;22;45331;-89
2022/07/03 17:59:08;;;;;;;;;0.67;0.67;;;;;26.33;53.79;101618.00;6280237;22;45164;-89
2022/07/03 18:01:34;;;;;;;;;0.00;0.00;;;;;26.27;54.22;101605.47;6250066;22;45387;-88
2022/07/03 18:04:00;;;;;;;;;0.00;0.00;;;;;26.22;54.38;101615.38;6270412;22;46126;-88
2022/07/03 18:06:29;;;;;;;;;0.33;0.33;;;;;26.15;54.81;101610.94;6271055;22;45552;-88
2022/07/03 18:08:59;;;;;;;;;0.00;0.00;;;;;26.09;54.96;101612.75;6271014;22;45294;-89
2022/07/03 18:11:37;;;;;;;;;0.00;0.00;;;;;26.07;54.83;101616.34;6271192;22;45548;-86
2022/07/03 18:14:13;;;;;;;;;3.00;1.00;;;;;25.99;54.78;101605.66;6271284;22;45375;-88
2022/07/03 18:16:44;;;;;;;;;0.00;0.00;;;;;25.97;54.84;101623.59;6271350;22;45235;-88
2022/07/03 18:19:11;;;;;;;;;0.00;0.00;;;;;25.90;54.72;101611.97;6243043;22;45367;-87
2022/07/03 18:21:40;;;;;;;;;4.00;4.00;;;;;25.88;55.05;101619.13;6270438;22;45284;-87
2022/07/03 18:24:11;;;;;;;;;6.33;6.00;;;;;25.85;55.00;101627.22;6270288;22;46089;-87
2022/07/03 18:26:41;;;;;;;;;0.00;0.00;;;;;25.76;55.09;101625.50;6271502;22;45321;-88
2022/07/03 18:29:09;;;;;;;;;0.00;0.00;;;;;25.75;55.09;101627.28;6271339;22;45320;-87
2022/07/03 18:31:39;;;;;;;;;0.00;0.00;;;;;25.65;54.91;101623.69;6271374;22;45401;-87
2022/07/03 18:34:05;;;;;;;;;0.00;0.00;;;;;25.61;55.29;101623.72;6273179;22;45323;-87
2022/07/03 18:36:31;;;;;;;;;0.00;0.00;;;;;25.55;55.43;101619.25;6273753;22;45685;-88
2022/07/03 18:38:58;;;;;;;;;1.00;0.00;;;;;25.54;55.92;101628.22;6273576;22;45380;-87
2022/07/03 18:41:26;;;;;;;;;0.00;0.00;;;;;25.50;55.61;101632.72;6279246;22;45223;-86
2022/07/03 18:43:56;;;;;;;;;0.00;0.00;;;;;25.44;56.26;101635.41;6273912;22;45651;-87
2022/07/03 18:46:24;;;;;;;;;0.00;0.00;;;;;25.37;56.70;101620.22;6271211;22;45167;-87
2022/07/03 18:48:51;;;;;;;;;0.00;0.00;;;;;25.33;57.01;101622.91;6242670;22;45418;-89
2022/07/03 18:51:27;;;;;;;;;1.67;0.00;;;;;25.28;57.67;101618.47;6243492;22;45493;-88
2022/07/03 18:54:16;;;;;;;;;1.00;0.00;;;;;25.22;58.56;101608.63;6242907;22;48438;-94
2022/07/03 18:57:13;;;;;;;;;0.00;0.00;;;;;25.14;58.41;101605.06;6245227;22;45846;-95
2022/07/03 19:00:03;;;;;;;;;2.00;0.00;;;;;25.05;57.38;101620.28;6245963;22;45461;-93
2022/07/03 19:02:54;;;;;;;;;2.00;1.00;;;;;24.89;58.22;101600.59;6246939;22;45488;-95
2022/07/03 19:05:53;;;;;;;;;0.00;0.00;;;;;24.88;57.63;101615.81;6245720;22;47137;-95
2022/07/03 19:08:29;;;;;;;;;0.00;0.00;;;;;24.88;58.62;101625.66;6273471;22;45428;-91
2022/07/03 19:11:17;;;;;;;;;0.00;0.00;;;;;24.66;58.52;101602.38;6246808;22;45465;-94